sensor_id;sensor_type;location;lat;lon;timestamp;temperature;humidity
7461;DHT22;6757;52.258;12.840;2022-09-02T00:01:13;11.00;99.90
7461;DHT22;6757;52.258;12.840;2022-09-02T00:06:09;10.90;99.90
7461;DHT22;6757;52.258;12.840;2022-09-02T00:08:37;10.90;99.90
7461;DHT22;6757;52.258;12.840;2022-09-02T00:11:06;10.90;99.90
7461;DHT22;6757;52.258;12.840;2022-09-02T00:13:36;10.90;99.90
7461;DHT22;6757;52.258;12.840;2022-09-02T00:16:04;10.90;99.90
7461;DHT22;6757;52.258;12.840;2022-09-02T00:18:32;10.80;99.90
7461;DHT22;6757;52.258;12.840;2022-09-02T00:21:00;10.80;99.90
7461;DHT22;6757;52.258;12.840;2022-09-02T00:23:28;10.80;99.90
7461;DHT22;6757;52.258;12.840;2022-09-02T00:25:55;10.80;99.90
7461;DHT22;6757;52.258;12.840;2022-09-02T00:28:25;10.80;99.90
7461;DHT22;6757;52.258;12.840;2022-09-02T00:30:52;10.70;99.90
7461;DHT22;6757;52.258;12.840;2022-09-02T00:33:18;10.70;99.90
7461;DHT22;6757;52.258;12.840;2022-09-02T00:35:46;10.70;99.90
7461;DHT22;6757;52.258;12.840;2022-09-02T00:38:13;10.70;99.90
7461;DHT22;6757;52.258;12.840;2022-09-02T00:40:44;10.60;99.90
7461;DHT22;6757;52.258;12.840;2022-09-02T00:43:12;10.60;99.90
7461;DHT22;6757;52.258;12.840;2022-09-02T00:45:50;10.60;99.90
7461;DHT22;6757;52.258;12.840;2022-09-02T00:48:18;11.40;99.90
7461;DHT22;6757;52.258;12.840;2022-09-02T00:50:45;10.50;99.90
7461;DHT22;6757;52.258;12.840;2022-09-02T00:53:13;10.40;99.90
7461;DHT22;6757;52.258;12.840;2022-09-02T00:55:43;10.50;99.90
7461;DHT22;6757;52.258;12.840;2022-09-02T00:58:15;10.40;99.90
7461;DHT22;6757;52.258;12.840;2022-09-02T01:00:46;10.40;99.90
7461;DHT22;6757;52.258;12.840;2022-09-02T01:03:18;10.40;99.90
7461;DHT22;6757;52.258;12.840;2022-09-02T01:05:48;10.40;99.90
7461;DHT22;6757;52.258;12.840;2022-09-02T01:08:18;10.30;99.90
7461;DHT22;6757;52.258;12.840;2022-09-02T01:10:47;10.30;99.90
7461;DHT22;6757;52.258;12.840;2022-09-02T01:13:18;10.30;99.90
7461;DHT22;6757;52.258;12.840;2022-09-02T01:15:51;10.30;99.90
7461;DHT22;6757;52.258;12.840;2022-09-02T01:18:23;10.20;99.90
7461;DHT22;6757;52.258;12.840;2022-09-02T01:20:54;10.20;99.90
7461;DHT22;6757;52.258;12.840;2022-09-02T01:23:23;10.20;99.90
7461;DHT22;6757;52.258;12.840;2022-09-02T01:25:50;10.20;99.90
7461;DHT22;6757;52.258;12.840;2022-09-02T01:28:18;10.20;99.90
7461;DHT22;6757;52.258;12.840;2022-09-02T01:30:48;10.10;99.90
7461;DHT22;6757;52.258;12.840;2022-09-02T01:33:22;10.10;99.90
7461;DHT22;6757;52.258;12.840;2022-09-02T01:35:50;10.10;99.90
7461;DHT22;6757;52.258;12.840;2022-09-02T01:38:18;10.00;99.90
7461;DHT22;6757;52.258;12.840;2022-09-02T01:40:47;10.00;99.90
7461;DHT22;6757;52.258;12.840;2022-09-02T01:43:16;10.00;99.90
7461;DHT22;6757;52.258;12.840;2022-09-02T01:45:46;10.00;99.90
7461;DHT22;6757;52.258;12.840;2022-09-02T01:48:15;9.90;99.90
7461;DHT22;6757;52.258;12.840;2022-09-02T01:50:46;9.90;99.90
7461;DHT22;6757;52.258;12.840;2022-09-02T01:53:14;9.90;99.90
7461;DHT22;6757;52.258;12.840;2022-09-02T01:55:42;9.90;99.90
7461;DHT22;6757;52.258;12.840;2022-09-02T01:58:11;9.80;99.90
7461;DHT22;6757;52.258;12.840;2022-09-02T02:00:38;9.80;99.90
7461;DHT22;6757;52.258;12.840;2022-09-02T02:03:05;9.80;99.90
7461;DHT22;6757;52.258;12.840;2022-09-02T02:05:32;9.80;99.90
7461;DHT22;6757;52.258;12.840;2022-09-02T02:07:59;9.70;99.90
7461;DHT22;6757;52.258;12.840;2022-09-02T02:10:26;9.70;99.90
7461;DHT22;6757;52.258;12.840;2022-09-02T02:12:54;9.70;99.90
7461;DHT22;6757;52.258;12.840;2022-09-02T02:15:22;9.70;99.90
7461;DHT22;6757;52.258;12.840;2022-09-02T02:17:49;9.60;99.90
7461;DHT22;6757;52.258;12.840;2022-09-02T02:20:18;9.70;99.90
7461;DHT22;6757;52.258;12.840;2022-09-02T02:22:47;9.60;99.90
7461;DHT22;6757;52.258;12.840;2022-09-02T02:25:14;9.60;99.90
7461;DHT22;6757;52.258;12.840;2022-09-02T02:27:42;9.50;99.90
7461;DHT22;6757;52.258;12.840;2022-09-02T02:30:12;9.50;99.90
7461;DHT22;6757;52.258;12.840;2022-09-02T02:32:43;9.50;99.90
7461;DHT22;6757;52.258;12.840;2022-09-02T02:35:13;9.50;99.90
7461;DHT22;6757;52.258;12.840;2022-09-02T02:37:40;9.50;99.90
7461;DHT22;6757;52.258;12.840;2022-09-02T02:40:10;9.50;99.90
7461;DHT22;6757;52.258;12.840;2022-09-02T02:42:37;9.40;99.90
7461;DHT22;6757;52.258;12.840;2022-09-02T02:45:06;9.40;99.90
7461;DHT22;6757;52.258;12.840;2022-09-02T02:47:36;9.40;99.90
7461;DHT22;6757;52.258;12.840;2022-09-02T02:50:08;9.40;99.90
7461;DHT22;6757;52.258;12.840;2022-09-02T02:52:37;9.40;99.90
7461;DHT22;6757;52.258;12.840;2022-09-02T02:55:07;9.30;99.90
7461;DHT22;6757;52.258;12.840;2022-09-02T02:57:36;9.30;99.90
7461;DHT22;6757;52.258;12.840;2022-09-02T03:00:06;9.30;99.90
7461;DHT22;6757;52.258;12.840;2022-09-02T03:02:35;9.20;99.90
7461;DHT22;6757;52.258;12.840;2022-09-02T03:05:05;9.20;99.90
7461;DHT22;6757;52.258;12.840;2022-09-02T03:07:32;9.20;99.90
7461;DHT22;6757;52.258;12.840;2022-09-02T03:10:00;9.20;99.90
7461;DHT22;6757;52.258;12.840;2022-09-02T03:12:27;9.20;99.90
7461;DHT22;6757;52.258;12.840;2022-09-02T03:14:57;9.20;99.90
7461;DHT22;6757;52.258;12.840;2022-09-02T03:17:24;9.10;99.90
7461;DHT22;6757;52.258;12.840;2022-09-02T03:19:51;9.10;99.90
7461;DHT22;6757;52.258;12.840;2022-09-02T03:22:19;9.10;99.90
7461;DHT22;6757;52.258;12.840;2022-09-02T03:24:46;9.10;99.90
7461;DHT22;6757;52.258;12.840;2022-09-02T03:27:13;9.00;99.90
7461;DHT22;6757;52.258;12.840;2022-09-02T03:29:40;9.00;99.90
7461;DHT22;6757;52.258;12.840;2022-09-02T03:32:09;9.00;99.90
7461;DHT22;6757;52.258;12.840;2022-09-02T03:34:36;9.00;99.90
7461;DHT22;6757;52.258;12.840;2022-09-02T03:37:03;9.00;99.90
7461;DHT22;6757;52.258;12.840;2022-09-02T03:39:31;9.00;99.90
7461;DHT22;6757;52.258;12.840;2022-09-02T03:41:58;8.90;99.90
7461;DHT22;6757;52.258;12.840;2022-09-02T03:44:25;9.00;99.90
7461;DHT22;6757;52.258;12.840;2022-09-02T03:46:52;8.90;99.90
7461;DHT22;6757;52.258;12.840;2022-09-02T03:49:19;9.60;99.90
7461;DHT22;6757;52.258;12.840;2022-09-02T03:51:46;8.90;99.90
7461;DHT22;6757;52.258;12.840;2022-09-02T03:54:13;8.90;99.90
7461;DHT22;6757;52.258;12.840;2022-09-02T03:56:41;8.90;99.90
7461;DHT22;6757;52.258;12.840;2022-09-02T03:59:08;8.90;99.90
7461;DHT22;6757;52.258;12.840;2022-09-02T04:01:35;8.90;99.90
7461;DHT22;6757;52.258;12.840;2022-09-02T04:04:02;8.90;99.90
7461;DHT22;6757;52.258;12.840;2022-09-02T04:06:30;8.80;99.90
7461;DHT22;6757;52.258;12.840;2022-09-02T04:08:57;8.80;99.90
7461;DHT22;6757;52.258;12.840;2022-09-02T04:11:24;8.80;99.90
7461;DHT22;6757;52.258;12.840;2022-09-02T04:13:53;8.80;99.90
7461;DHT22;6757;52.258;12.840;2022-09-02T04:16:22;8.80;99.90
7461;DHT22;6757;52.258;12.840;2022-09-02T04:18:53;8.80;99.90
7461;DHT22;6757;52.258;12.840;2022-09-02T04:21:20;8.70;99.90
7461;DHT22;6757;52.258;12.840;2022-09-02T04:23:47;8.70;99.90
7461;DHT22;6757;52.258;12.840;2022-09-02T04:26:16;8.80;99.90
7461;DHT22;6757;52.258;12.840;2022-09-02T04:28:46;9.90;99.90
7461;DHT22;6757;52.258;12.840;2022-09-02T04:31:16;8.80;99.90
7461;DHT22;6757;52.258;12.840;2022-09-02T04:33:45;8.80;99.90
7461;DHT22;6757;52.258;12.840;2022-09-02T04:36:14;8.80;99.90
7461;DHT22;6757;52.258;12.840;2022-09-02T04:38:42;8.80;99.90
7461;DHT22;6757;52.258;12.840;2022-09-02T04:41:12;8.80;99.90
7461;DHT22;6757;52.258;12.840;2022-09-02T04:43:40;8.80;99.90
7461;DHT22;6757;52.258;12.840;2022-09-02T04:46:10;8.80;99.90
7461;DHT22;6757;52.258;12.840;2022-09-02T04:48:40;8.80;99.90
7461;DHT22;6757;52.258;12.840;2022-09-02T04:51:09;8.90;99.90
7461;DHT22;6757;52.258;12.840;2022-09-02T04:53:38;8.90;99.90
7461;DHT22;6757;52.258;12.840;2022-09-02T04:56:08;8.90;99.90
7461;DHT22;6757;52.258;12.840;2022-09-02T04:58:37;8.90;99.90
7461;DHT22;6757;52.258;12.840;2022-09-02T05:01:05;8.90;99.90
7461;DHT22;6757;52.258;12.840;2022-09-02T05:03:33;9.00;99.90
7461;DHT22;6757;52.258;12.840;2022-09-02T05:06:04;9.00;99.90
7461;DHT22;6757;52.258;12.840;2022-09-02T05:08:33;9.10;99.90
7461;DHT22;6757;52.258;12.840;2022-09-02T05:11:04;9.00;99.90
7461;DHT22;6757;52.258;12.840;2022-09-02T05:13:31;9.10;99.90
7461;DHT22;6757;52.258;12.840;2022-09-02T05:15:58;9.10;99.90
7461;DHT22;6757;52.258;12.840;2022-09-02T05:18:25;9.10;99.90
7461;DHT22;6757;52.258;12.840;2022-09-02T05:20:52;9.20;99.90
7461;DHT22;6757;52.258;12.840;2022-09-02T05:23:20;9.20;99.90
7461;DHT22;6757;52.258;12.840;2022-09-02T05:25:47;9.30;99.90
7461;DHT22;6757;52.258;12.840;2022-09-02T05:28:14;9.30;99.90
7461;DHT22;6757;52.258;12.840;2022-09-02T05:30:42;9.40;99.90
7461;DHT22;6757;52.258;12.840;2022-09-02T05:33:10;9.50;99.90
7461;DHT22;6757;52.258;12.840;2022-09-02T05:35:39;9.50;99.90
7461;DHT22;6757;52.258;12.840;2022-09-02T05:38:07;9.60;99.90
7461;DHT22;6757;52.258;12.840;2022-09-02T05:40:36;9.70;99.90
7461;DHT22;6757;52.258;12.840;2022-09-02T05:43:03;9.70;99.90
7461;DHT22;6757;52.258;12.840;2022-09-02T05:45:30;10.00;99.90
7461;DHT22;6757;52.258;12.840;2022-09-02T05:47:57;9.90;99.90
7461;DHT22;6757;52.258;12.840;2022-09-02T05:50:44;10.10;99.90
7461;DHT22;6757;52.258;12.840;2022-09-02T05:53:11;10.20;99.90
7461;DHT22;6757;52.258;12.840;2022-09-02T05:55:39;10.30;99.90
7461;DHT22;6757;52.258;12.840;2022-09-02T05:58:07;10.40;99.90
7461;DHT22;6757;52.258;12.840;2022-09-02T06:00:34;10.60;99.90
7461;DHT22;6757;52.258;12.840;2022-09-02T06:03:01;10.70;99.90
7461;DHT22;6757;52.258;12.840;2022-09-02T06:05:29;10.80;99.90
7461;DHT22;6757;52.258;12.840;2022-09-02T06:07:57;10.90;99.90
7461;DHT22;6757;52.258;12.840;2022-09-02T06:10:24;12.20;99.90
7461;DHT22;6757;52.258;12.840;2022-09-02T06:12:53;11.20;99.90
7461;DHT22;6757;52.258;12.840;2022-09-02T06:15:20;11.30;99.90
7461;DHT22;6757;52.258;12.840;2022-09-02T06:17:47;11.40;99.90
7461;DHT22;6757;52.258;12.840;2022-09-02T06:20:14;11.50;99.90
7461;DHT22;6757;52.258;12.840;2022-09-02T06:22:41;11.70;99.90
7461;DHT22;6757;52.258;12.840;2022-09-02T06:25:08;11.80;99.90
7461;DHT22;6757;52.258;12.840;2022-09-02T06:27:36;12.00;99.90
7461;DHT22;6757;52.258;12.840;2022-09-02T06:30:07;12.00;99.90
7461;DHT22;6757;52.258;12.840;2022-09-02T06:32:35;12.10;99.90
7461;DHT22;6757;52.258;12.840;2022-09-02T06:35:05;12.20;99.90
7461;DHT22;6757;52.258;12.840;2022-09-02T06:37:33;12.40;99.90
7461;DHT22;6757;52.258;12.840;2022-09-02T06:40:00;12.50;99.90
7461;DHT22;6757;52.258;12.840;2022-09-02T06:42:27;12.60;99.90
7461;DHT22;6757;52.258;12.840;2022-09-02T06:44:54;12.70;99.90
7461;DHT22;6757;52.258;12.840;2022-09-02T06:47:23;12.80;99.90
7461;DHT22;6757;52.258;12.840;2022-09-02T06:49:50;12.90;99.90
7461;DHT22;6757;52.258;12.840;2022-09-02T06:52:17;13.10;99.90
7461;DHT22;6757;52.258;12.840;2022-09-02T06:54:44;13.20;99.90
7461;DHT22;6757;52.258;12.840;2022-09-02T06:57:11;13.30;99.90
7461;DHT22;6757;52.258;12.840;2022-09-02T06:59:39;13.40;99.90
7461;DHT22;6757;52.258;12.840;2022-09-02T07:02:06;13.50;99.90
7461;DHT22;6757;52.258;12.840;2022-09-02T07:04:35;13.70;99.90
7461;DHT22;6757;52.258;12.840;2022-09-02T07:07:18;13.80;99.90
7461;DHT22;6757;52.258;12.840;2022-09-02T07:09:46;13.80;99.90
7461;DHT22;6757;52.258;12.840;2022-09-02T07:12:13;14.10;99.90
7461;DHT22;6757;52.258;12.840;2022-09-02T07:14:42;14.10;99.90
7461;DHT22;6757;52.258;12.840;2022-09-02T07:17:11;14.30;99.90
7461;DHT22;6757;52.258;12.840;2022-09-02T07:19:43;14.50;99.90
7461;DHT22;6757;52.258;12.840;2022-09-02T07:22:10;14.50;99.90
7461;DHT22;6757;52.258;12.840;2022-09-02T07:24:37;14.60;99.90
7461;DHT22;6757;52.258;12.840;2022-09-02T07:27:04;14.80;99.90
7461;DHT22;6757;52.258;12.840;2022-09-02T07:29:32;14.80;99.90
7461;DHT22;6757;52.258;12.840;2022-09-02T07:32:00;15.00;99.90
7461;DHT22;6757;52.258;12.840;2022-09-02T07:34:27;15.10;99.90
7461;DHT22;6757;52.258;12.840;2022-09-02T07:36:56;15.20;99.90
7461;DHT22;6757;52.258;12.840;2022-09-02T07:39:23;15.30;99.90
7461;DHT22;6757;52.258;12.840;2022-09-02T07:41:50;15.40;99.90
7461;DHT22;6757;52.258;12.840;2022-09-02T07:44:21;15.70;99.90
7461;DHT22;6757;52.258;12.840;2022-09-02T07:46:48;15.60;99.90
7461;DHT22;6757;52.258;12.840;2022-09-02T07:49:16;16.40;99.90
7461;DHT22;6757;52.258;12.840;2022-09-02T07:51:45;15.80;99.90
7461;DHT22;6757;52.258;12.840;2022-09-02T07:54:18;15.90;99.90
7461;DHT22;6757;52.258;12.840;2022-09-02T07:56:46;16.00;99.90
7461;DHT22;6757;52.258;12.840;2022-09-02T07:59:14;16.10;99.90
7461;DHT22;6757;52.258;12.840;2022-09-02T08:01:41;16.80;99.90
7461;DHT22;6757;52.258;12.840;2022-09-02T08:04:08;16.20;99.90
7461;DHT22;6757;52.258;12.840;2022-09-02T08:06:36;16.30;99.90
7461;DHT22;6757;52.258;12.840;2022-09-02T08:09:05;16.40;99.90
7461;DHT22;6757;52.258;12.840;2022-09-02T08:11:37;16.50;99.90
7461;DHT22;6757;52.258;12.840;2022-09-02T08:14:05;16.60;99.90
7461;DHT22;6757;52.258;12.840;2022-09-02T08:16:32;16.60;99.90
7461;DHT22;6757;52.258;12.840;2022-09-02T08:19:00;16.70;99.90
7461;DHT22;6757;52.258;12.840;2022-09-02T08:21:26;16.80;99.90
7461;DHT22;6757;52.258;12.840;2022-09-02T08:23:54;16.90;99.90
7461;DHT22;6757;52.258;12.840;2022-09-02T08:26:21;17.00;99.90
7461;DHT22;6757;52.258;12.840;2022-09-02T08:28:50;17.00;99.90
7461;DHT22;6757;52.258;12.840;2022-09-02T08:31:17;17.10;99.90
7461;DHT22;6757;52.258;12.840;2022-09-02T08:33:44;17.20;99.90
7461;DHT22;6757;52.258;12.840;2022-09-02T08:36:11;17.30;99.90
7461;DHT22;6757;52.258;12.840;2022-09-02T08:38:39;17.40;99.90
7461;DHT22;6757;52.258;12.840;2022-09-02T08:41:18;17.50;99.90
7461;DHT22;6757;52.258;12.840;2022-09-02T08:43:47;17.60;99.90
7461;DHT22;6757;52.258;12.840;2022-09-02T08:46:18;17.60;99.90
7461;DHT22;6757;52.258;12.840;2022-09-02T08:48:52;17.70;99.90
7461;DHT22;6757;52.258;12.840;2022-09-02T08:51:27;17.80;99.90
7461;DHT22;6757;52.258;12.840;2022-09-02T08:54:01;17.80;99.90
7461;DHT22;6757;52.258;12.840;2022-09-02T08:56:30;17.90;99.90
7461;DHT22;6757;52.258;12.840;2022-09-02T08:58:59;18.00;99.90
7461;DHT22;6757;52.258;12.840;2022-09-02T09:01:32;18.00;99.90
7461;DHT22;6757;52.258;12.840;2022-09-02T09:04:15;18.10;99.90
7461;DHT22;6757;52.258;12.840;2022-09-02T09:06:54;18.70;99.90
7461;DHT22;6757;52.258;12.840;2022-09-02T09:09:35;18.20;99.90
7461;DHT22;6757;52.258;12.840;2022-09-02T09:12:16;18.30;99.90
7461;DHT22;6757;52.258;12.840;2022-09-02T09:14:54;18.40;99.90
7461;DHT22;6757;52.258;12.840;2022-09-02T09:17:29;18.50;99.90
7461;DHT22;6757;52.258;12.840;2022-09-02T09:20:01;18.50;99.90
7461;DHT22;6757;52.258;12.840;2022-09-02T09:22:33;18.60;99.90
7461;DHT22;6757;52.258;12.840;2022-09-02T09:25:06;18.60;99.90
7461;DHT22;6757;52.258;12.840;2022-09-02T09:27:36;18.70;99.90
7461;DHT22;6757;52.258;12.840;2022-09-02T09:30:07;18.80;99.90
7461;DHT22;6757;52.258;12.840;2022-09-02T09:32:39;18.80;99.90
7461;DHT22;6757;52.258;12.840;2022-09-02T09:35:08;18.90;99.90
7461;DHT22;6757;52.258;12.840;2022-09-02T09:37:37;19.00;99.90
7461;DHT22;6757;52.258;12.840;2022-09-02T09:40:26;19.00;99.90
7461;DHT22;6757;52.258;12.840;2022-09-02T09:42:59;19.20;99.90
7461;DHT22;6757;52.258;12.840;2022-09-02T09:45:40;19.20;99.90
7461;DHT22;6757;52.258;12.840;2022-09-02T09:48:20;19.30;99.90
7461;DHT22;6757;52.258;12.840;2022-09-02T09:51:11;19.40;99.90
7461;DHT22;6757;52.258;12.840;2022-09-02T09:53:40;19.40;99.90
7461;DHT22;6757;52.258;12.840;2022-09-02T09:56:26;19.50;99.90
7461;DHT22;6757;52.258;12.840;2022-09-02T09:58:57;19.60;99.90
7461;DHT22;6757;52.258;12.840;2022-09-02T10:01:28;20.30;99.90
7461;DHT22;6757;52.258;12.840;2022-09-02T10:03:57;19.60;99.90
7461;DHT22;6757;52.258;12.840;2022-09-02T10:06:37;19.60;99.90
7461;DHT22;6757;52.258;12.840;2022-09-02T10:09:24;19.60;99.90
7461;DHT22;6757;52.258;12.840;2022-09-02T10:11:58;19.70;99.90
7461;DHT22;6757;52.258;12.840;2022-09-02T10:14:30;19.80;99.90
7461;DHT22;6757;52.258;12.840;2022-09-02T10:17:09;19.90;99.90
7461;DHT22;6757;52.258;12.840;2022-09-02T10:19:54;20.10;99.90
7461;DHT22;6757;52.258;12.840;2022-09-02T10:25:30;21.50;99.90
7461;DHT22;6757;52.258;12.840;2022-09-02T10:28:11;20.30;99.90
7461;DHT22;6757;52.258;12.840;2022-09-02T10:30:53;20.20;99.90
7461;DHT22;6757;52.258;12.840;2022-09-02T10:33:39;20.20;99.90
7461;DHT22;6757;52.258;12.840;2022-09-02T10:36:19;20.20;99.90
7461;DHT22;6757;52.258;12.840;2022-09-02T10:38:54;20.20;99.90
7461;DHT22;6757;52.258;12.840;2022-09-02T10:41:38;20.30;99.90
7461;DHT22;6757;52.258;12.840;2022-09-02T10:44:20;20.30;99.90
7461;DHT22;6757;52.258;12.840;2022-09-02T10:46:58;20.30;99.90
7461;DHT22;6757;52.258;12.840;2022-09-02T10:49:49;20.30;99.90
7461;DHT22;6757;52.258;12.840;2022-09-02T10:52:34;20.40;99.90
7461;DHT22;6757;52.258;12.840;2022-09-02T10:55:15;20.50;99.90
7461;DHT22;6757;52.258;12.840;2022-09-02T10:57:49;20.90;99.90
7461;DHT22;6757;52.258;12.840;2022-09-02T11:00:18;20.60;99.90
7461;DHT22;6757;52.258;12.840;2022-09-02T11:02:49;20.60;99.10
7461;DHT22;6757;52.258;12.840;2022-09-02T11:05:23;20.70;98.90
7461;DHT22;6757;52.258;12.840;2022-09-02T11:07:57;20.70;98.80
7461;DHT22;6757;52.258;12.840;2022-09-02T11:10:30;20.70;98.40
7461;DHT22;6757;52.258;12.840;2022-09-02T11:13:02;21.30;98.20
7461;DHT22;6757;52.258;12.840;2022-09-02T11:15:40;20.90;97.70
7461;DHT22;6757;52.258;12.840;2022-09-02T11:18:17;20.90;97.20
7461;DHT22;6757;52.258;12.840;2022-09-02T11:20:56;21.00;96.40
7461;DHT22;6757;52.258;12.840;2022-09-02T11:23:34;21.00;95.80
7461;DHT22;6757;52.258;12.840;2022-09-02T11:26:08;21.10;94.80
7461;DHT22;6757;52.258;12.840;2022-09-02T11:28:40;21.10;94.40
7461;DHT22;6757;52.258;12.840;2022-09-02T11:31:14;21.20;94.10
7461;DHT22;6757;52.258;12.840;2022-09-02T11:33:51;21.30;93.90
7461;DHT22;6757;52.258;12.840;2022-09-02T11:36:23;21.50;93.80
7461;DHT22;6757;52.258;12.840;2022-09-02T11:38:55;21.50;93.50
7461;DHT22;6757;52.258;12.840;2022-09-02T11:41:29;21.60;93.20
7461;DHT22;6757;52.258;12.840;2022-09-02T11:44:13;21.80;93.00
7461;DHT22;6757;52.258;12.840;2022-09-02T11:47:06;21.90;92.70
7461;DHT22;6757;52.258;12.840;2022-09-02T11:49:54;22.00;92.40
7461;DHT22;6757;52.258;12.840;2022-09-02T11:52:42;22.10;92.20
7461;DHT22;6757;52.258;12.840;2022-09-02T11:55:21;22.20;92.10
7461;DHT22;6757;52.258;12.840;2022-09-02T11:57:51;22.40;91.50
7461;DHT22;6757;52.258;12.840;2022-09-02T12:00:26;22.70;91.10
7461;DHT22;6757;52.258;12.840;2022-09-02T12:03:13;22.80;90.50
7461;DHT22;6757;52.258;12.840;2022-09-02T12:05:49;23.00;89.90
7461;DHT22;6757;52.258;12.840;2022-09-02T12:09:06;22.90;88.90
7461;DHT22;6757;52.258;12.840;2022-09-02T12:11:46;22.90;88.30
7461;DHT22;6757;52.258;12.840;2022-09-02T12:17:38;23.40;84.70
7461;DHT22;6757;52.258;12.840;2022-09-02T12:20:10;23.90;83.00
7461;DHT22;6757;52.258;12.840;2022-09-02T12:22:59;24.40;81.20
7461;DHT22;6757;52.258;12.840;2022-09-02T12:25:36;24.80;79.40
7461;DHT22;6757;52.258;12.840;2022-09-02T12:28:14;25.10;78.10
7461;DHT22;6757;52.258;12.840;2022-09-02T12:31:08;25.40;77.10
7461;DHT22;6757;52.258;12.840;2022-09-02T12:33:40;25.60;75.90
7461;DHT22;6757;52.258;12.840;2022-09-02T12:36:46;25.40;75.00
7461;DHT22;6757;52.258;12.840;2022-09-02T12:39:43;25.20;74.60
7461;DHT22;6757;52.258;12.840;2022-09-02T12:42:19;24.90;74.70
7461;DHT22;6757;52.258;12.840;2022-09-02T12:45:00;24.50;75.00
7461;DHT22;6757;52.258;12.840;2022-09-02T12:47:42;24.30;75.30
7461;DHT22;6757;52.258;12.840;2022-09-02T12:50:24;24.10;75.70
7461;DHT22;6757;52.258;12.840;2022-09-02T12:53:07;23.90;75.90
7461;DHT22;6757;52.258;12.840;2022-09-02T12:55:39;23.80;76.10
7461;DHT22;6757;52.258;12.840;2022-09-02T12:58:09;23.70;76.30
7461;DHT22;6757;52.258;12.840;2022-09-02T13:00:56;23.50;76.20
7461;DHT22;6757;52.258;12.840;2022-09-02T13:03:43;23.40;76.30
7461;DHT22;6757;52.258;12.840;2022-09-02T13:06:24;23.20;76.10
7461;DHT22;6757;52.258;12.840;2022-09-02T13:09:22;23.10;76.10
7461;DHT22;6757;52.258;12.840;2022-09-02T13:12:56;23.00;76.30
7461;DHT22;6757;52.258;12.840;2022-09-02T13:16:05;22.80;76.40
7461;DHT22;6757;52.258;12.840;2022-09-02T13:18:54;22.80;76.60
7461;DHT22;6757;52.258;12.840;2022-09-02T13:21:48;22.90;76.50
7461;DHT22;6757;52.258;12.840;2022-09-02T13:31:12;24.00;73.90
7461;DHT22;6757;52.258;12.840;2022-09-02T13:33:45;24.90;72.30
7461;DHT22;6757;52.258;12.840;2022-09-02T13:36:22;25.60;70.70
7461;DHT22;6757;52.258;12.840;2022-09-02T13:38:52;26.20;69.00
7461;DHT22;6757;52.258;12.840;2022-09-02T13:41:32;26.30;67.80
7461;DHT22;6757;52.258;12.840;2022-09-02T13:44:10;26.20;67.30
7461;DHT22;6757;52.258;12.840;2022-09-02T13:46:46;26.00;66.90
7461;DHT22;6757;52.258;12.840;2022-09-02T13:49:18;25.60;67.00
7461;DHT22;6757;52.258;12.840;2022-09-02T13:51:48;25.20;67.50
7461;DHT22;6757;52.258;12.840;2022-09-02T13:54:28;24.80;68.10
7461;DHT22;6757;52.258;12.840;2022-09-02T13:57:00;24.50;68.50
7461;DHT22;6757;52.258;12.840;2022-09-02T13:59:36;24.20;68.90
7461;DHT22;6757;52.258;12.840;2022-09-02T14:02:20;24.10;69.40
7461;DHT22;6757;52.258;12.840;2022-09-02T14:04:53;23.90;70.30
7461;DHT22;6757;52.258;12.840;2022-09-02T14:07:27;23.80;70.50
7461;DHT22;6757;52.258;12.840;2022-09-02T14:09:59;23.70;70.10
7461;DHT22;6757;52.258;12.840;2022-09-02T14:12:31;23.80;70.30
7461;DHT22;6757;52.258;12.840;2022-09-02T14:14:59;23.80;70.30
7461;DHT22;6757;52.258;12.840;2022-09-02T14:17:27;24.00;70.30
7461;DHT22;6757;52.258;12.840;2022-09-02T14:20:08;24.10;70.00
7461;DHT22;6757;52.258;12.840;2022-09-02T14:22:41;24.50;69.40
7461;DHT22;6757;52.258;12.840;2022-09-02T14:25:11;25.10;68.60
7461;DHT22;6757;52.258;12.840;2022-09-02T14:27:47;26.00;66.90
7461;DHT22;6757;52.258;12.840;2022-09-02T14:30:27;26.60;65.30
7461;DHT22;6757;52.258;12.840;2022-09-02T14:33:15;27.40;64.00
7461;DHT22;6757;52.258;12.840;2022-09-02T14:35:54;28.30;62.60
7461;DHT22;6757;52.258;12.840;2022-09-02T14:38:26;29.10;61.20
7461;DHT22;6757;52.258;12.840;2022-09-02T14:41:02;29.80;59.90
7461;DHT22;6757;52.258;12.840;2022-09-02T14:43:39;30.40;58.00
7461;DHT22;6757;52.258;12.840;2022-09-02T14:46:14;30.70;56.70
7461;DHT22;6757;52.258;12.840;2022-09-02T14:48:52;31.10;55.90
7461;DHT22;6757;52.258;12.840;2022-09-02T14:51:22;31.70;55.20
7461;DHT22;6757;52.258;12.840;2022-09-02T14:53:54;31.80;54.30
7461;DHT22;6757;52.258;12.840;2022-09-02T14:56:42;32.30;53.60
7461;DHT22;6757;52.258;12.840;2022-09-02T14:59:14;32.60;52.40
7461;DHT22;6757;52.258;12.840;2022-09-02T15:01:43;32.80;51.40
7461;DHT22;6757;52.258;12.840;2022-09-02T15:04:13;33.00;50.60
7461;DHT22;6757;52.258;12.840;2022-09-02T15:06:40;33.30;49.90
7461;DHT22;6757;52.258;12.840;2022-09-02T15:09:07;33.30;48.90
7461;DHT22;6757;52.258;12.840;2022-09-02T15:11:35;33.80;48.10
7461;DHT22;6757;52.258;12.840;2022-09-02T15:14:02;33.50;46.80
7461;DHT22;6757;52.258;12.840;2022-09-02T15:16:30;33.50;46.20
7461;DHT22;6757;52.258;12.840;2022-09-02T15:18:57;33.50;45.80
7461;DHT22;6757;52.258;12.840;2022-09-02T15:21:24;33.60;45.70
7461;DHT22;6757;52.258;12.840;2022-09-02T15:23:51;33.60;45.40
7461;DHT22;6757;52.258;12.840;2022-09-02T15:26:18;34.00;45.60
7461;DHT22;6757;52.258;12.840;2022-09-02T15:28:45;34.20;45.50
7461;DHT22;6757;52.258;12.840;2022-09-02T15:31:12;33.50;44.80
7461;DHT22;6757;52.258;12.840;2022-09-02T15:33:40;33.40;44.50
7461;DHT22;6757;52.258;12.840;2022-09-02T15:36:09;33.20;44.30
7461;DHT22;6757;52.258;12.840;2022-09-02T15:38:37;33.10;44.50
7461;DHT22;6757;52.258;12.840;2022-09-02T15:41:16;32.90;44.50
7461;DHT22;6757;52.258;12.840;2022-09-02T15:43:44;33.50;45.30
7461;DHT22;6757;52.258;12.840;2022-09-02T15:46:21;32.70;44.80
7461;DHT22;6757;52.258;12.840;2022-09-02T15:48:51;32.50;44.60
7461;DHT22;6757;52.258;12.840;2022-09-02T15:51:21;32.30;44.60
7461;DHT22;6757;52.258;12.840;2022-09-02T15:53:53;32.30;44.60
7461;DHT22;6757;52.258;12.840;2022-09-02T15:56:22;32.10;44.50
7461;DHT22;6757;52.258;12.840;2022-09-02T15:58:53;32.10;44.60
7461;DHT22;6757;52.258;12.840;2022-09-02T16:01:23;31.80;44.50
7461;DHT22;6757;52.258;12.840;2022-09-02T16:03:52;31.40;44.80
7461;DHT22;6757;52.258;12.840;2022-09-02T16:06:20;30.90;45.30
7461;DHT22;6757;52.258;12.840;2022-09-02T16:08:47;30.40;45.90
7461;DHT22;6757;52.258;12.840;2022-09-02T16:11:14;29.90;46.40
7461;DHT22;6757;52.258;12.840;2022-09-02T16:13:42;29.70;46.80
7461;DHT22;6757;52.258;12.840;2022-09-02T16:16:11;29.60;47.20
7461;DHT22;6757;52.258;12.840;2022-09-02T16:18:39;29.40;47.40
7461;DHT22;6757;52.258;12.840;2022-09-02T16:21:09;29.00;47.60
7461;DHT22;6757;52.258;12.840;2022-09-02T16:23:37;28.60;48.10
7461;DHT22;6757;52.258;12.840;2022-09-02T16:26:09;28.30;48.70
7461;DHT22;6757;52.258;12.840;2022-09-02T16:28:41;28.00;49.10
7461;DHT22;6757;52.258;12.840;2022-09-02T16:31:11;27.70;49.60
7461;DHT22;6757;52.258;12.840;2022-09-02T16:33:42;27.40;50.00
7461;DHT22;6757;52.258;12.840;2022-09-02T16:36:10;27.00;50.50